In Rescue
 
Open Full Screen Window  High Contrast Mode
Wind Gusting 00 knots
06
November 27, 2020 10:47 PM CST
Weather Information
Wind Direction
  210 °
Wind Speed
  06 kt (7 mph)
Wind Gust
  00 kt (0 mph)
Altimeter
29.97 in
Visibility
10 SM
Temperature
00° C
32° F
Dewpoint
-03° C
27° F
Humidity
80%
1hr Rain Fall
00.00 in.
24hr Rain Fall
00.00 in.
Sky Condition
Clear
VFR

METAR KD39 280447Z AUTO 21006KT 10SM CLR 00/M03 A2997 RMK AO2 T10021034

FAA Disclaimer: The data displayed is for advisory purposes only and is not to be used for flight planning or operations.